Time;durP1;ratioP1;P1;durP2;ratioP2;P2;SDS_P1;SDS_P2;PMS_P1;PMS_P2;Temp;Humidity;BMP_temperature;BMP_pressure;BME280_temperature;BME280_humidity;BME280_pressure;Samples;Min_cycle;Max_cycle;Signal;HPM_P1;HPM_P2
2023/06/24 00:02:20;;;;;;;2.55;1.48;;;;;;;-142.75;100.00;76788.81;5048289;28;20116;-63
2023/06/24 00:04:45;;;;;;;2.60;1.30;;;;;;;-142.75;100.00;76790.78;5048259;28;20047;-63
2023/06/24 00:07:11;;;;;;;2.63;1.50;;;;;;;-142.75;100.00;76790.78;5048068;28;20516;-63
2023/06/24 00:09:37;;;;;;;2.30;1.25;;;;;;;-142.75;100.00;76790.78;5048409;28;20498;-63
2023/06/24 00:12:03;;;;;;;3.67;1.40;;;;;;;-142.75;100.00;76794.69;5048056;28;20075;-63
2023/06/24 00:14:28;;;;;;;4.07;1.63;;;;;;;-142.75;100.00;76798.66;5047859;28;20025;-62
2023/06/24 00:16:54;;;;;;;3.33;1.48;;;;;;;-142.75;100.00;76796.69;5048237;28;20024;-62
2023/06/24 00:19:20;;;;;;;3.78;1.23;;;;;;;-142.75;100.00;76806.50;5048397;28;20415;-63
2023/06/24 00:21:50;;;;;;;3.20;1.48;;;;;;;-142.75;100.00;76830.13;5048042;28;20025;-63
2023/06/24 00:24:17;;;;;;;4.85;1.38;;;;;;;-142.75;100.00;76828.16;5047933;28;20013;-63
2023/06/24 00:26:42;;;;;;;4.82;1.70;;;;;;;-142.75;100.00;76830.13;5048082;28;20103;-63
2023/06/24 00:29:08;;;;;;;4.28;1.38;;;;;;;-142.75;100.00;76824.22;5048079;28;20112;-62
2023/06/24 00:31:33;;;;;;;2.88;1.48;;;;;;;-142.75;100.00;76832.09;5048105;28;20039;-63
2023/06/24 00:33:59;;;;;;;2.63;1.42;;;;;;;-142.75;100.00;76838.00;5047895;28;20021;-63
2023/06/24 00:36:24;;;;;;;2.83;1.33;;;;;;;-142.75;100.00;76843.91;5047964;28;20082;-62
2023/06/24 00:38:49;;;;;;;2.80;1.40;;;;;;;-142.75;100.00;76849.81;5048030;28;20027;-62
2023/06/24 00:41:18;;;;;;;3.13;1.67;;;;;;;-142.75;100.00;76849.81;5047623;28;20123;-62
2023/06/24 00:43:43;;;;;;;5.60;1.60;;;;;;;-142.75;100.00;76847.84;5047557;28;20071;-63
2023/06/24 00:46:09;;;;;;;3.72;1.67;;;;;;;-142.75;100.00;76843.91;5047800;28;20036;-62
2023/06/24 00:48:34;;;;;;;4.00;1.67;;;;;;;-142.75;100.00;76843.91;5047841;28;20021;-63
2023/06/24 00:50:59;;;;;;;6.50;1.60;;;;;;;-142.75;100.00;76839.97;5047515;28;20028;-63
2023/06/24 00:53:25;;;;;;;3.47;1.50;;;;;;;-142.75;100.00;76847.84;5047243;28;20013;-61
2023/06/24 00:55:52;;;;;;;3.55;1.65;;;;;;;-142.75;100.00;76845.88;5047582;28;20028;-63
2023/06/24 00:58:20;;;;;;;3.45;1.70;;;;;;;-142.75;100.00;76849.81;5047400;28;20055;-63
2023/06/24 01:00:46;;;;;;;4.55;1.80;;;;;;;-142.75;100.00;76853.75;5047427;28;20028;-62
2023/06/24 01:03:13;;;;;;;6.03;1.90;;;;;;;-142.75;100.00;76851.78;5047034;28;20021;-62
2023/06/24 01:05:40;;;;;;;5.05;1.90;;;;;;;-142.75;100.00;76845.88;5047320;28;20023;-62
2023/06/24 01:08:06;;;;;;;3.38;1.73;;;;;;;-142.75;100.00;76849.81;5047855;28;20029;-62
2023/06/24 01:10:31;;;;;;;5.25;1.70;;;;;;;-142.75;100.00;76855.72;5047064;28;20074;-63
2023/06/24 01:12:57;;;;;;;3.97;1.48;;;;;;;-142.75;100.00;76857.69;5047134;28;20017;-62
2023/06/24 01:15:23;;;;;;;3.33;1.60;;;;;;;-142.75;100.00;76861.63;5047132;28;20400;-63
2023/06/24 01:18:08;;;;;;;4.53;1.67;;;;;;;-142.75;100.00;76845.88;5047010;28;20494;-62
2023/06/24 01:20:46;;;;;;;3.40;1.88;;;;;;;-142.75;100.00;76849.81;5047241;28;20480;-62
2023/06/24 01:23:23;;;;;;;3.33;1.85;;;;;;;-142.75;100.00;76851.78;5046900;28;20030;-60
2023/06/24 01:26:16;;;;;;;3.42;1.92;;;;;;;-142.75;100.00;76847.84;5046971;28;20482;-62
2023/06/24 01:28:59;;;;;;;4.05;2.03;;;;;;;-142.75;100.00;76853.75;5047013;28;20836;-61
2023/06/24 01:31:30;;;;;;;5.68;2.13;;;;;;;-142.75;100.00;76853.75;5047001;28;20029;-61
2023/06/24 01:34:06;;;;;;;5.90;2.50;;;;;;;-142.75;100.00;76865.56;5046680;28;20036;-62
2023/06/24 01:36:34;;;;;;;5.32;1.90;;;;;;;-142.75;100.00;76863.59;5046739;28;20036;-62
2023/06/24 01:39:07;;;;;;;4.32;2.13;;;;;;;-142.75;100.00;76849.81;5046696;28;20032;-63
2023/06/24 01:41:43;;;;;;;4.70;2.65;;;;;;;-142.75;100.00;76849.81;5046875;28;20028;-62
2023/06/24 01:44:15;;;;;;;4.82;2.33;;;;;;;-142.75;100.00;76849.81;5045342;28;20082;-60
2023/06/24 01:46:42;;;;;;;4.40;2.17;;;;;;;-142.75;100.00;76861.63;5046829;28;20029;-61
2023/06/24 01:49:10;;;;;;;4.13;2.28;;;;;;;-142.75;100.00;76855.72;5046596;28;20063;-62
2023/06/24 01:51:40;;;;;;;5.75;2.03;;;;;;;-142.75;100.00;76857.69;5046679;28;20051;-62
2023/06/24 01:54:08;;;;;;;4.63;2.05;;;;;;;-142.75;100.00;76859.66;5046517;28;20507;-62
2023/06/24 01:56:37;;;;;;;5.20;2.47;;;;;;;-142.75;100.00;76859.66;5046802;28;20025;-62
2023/06/24 01:59:04;;;;;;;3.63;1.88;;;;;;;-142.75;100.00;76865.56;5045059;28;20020;-60
2023/06/24 02:01:32;;;;;;;5.82;2.33;;;;;;;-142.75;100.00;76867.53;5046389;28;20067;-61
2023/06/24 02:04:00;;;;;;;5.32;2.03;;;;;;;-142.75;100.00;76871.47;5045940;28;20150;-62
2023/06/24 02:06:28;;;;;;;5.53;2.25;;;;;;;-142.75;100.00;76875.41;5045039;28;20067;-62
2023/06/24 02:08:55;;;;;;;3.80;2.08;;;;;;;-142.75;100.00;76879.34;5046372;28;20028;-62
2023/06/24 02:11:23;;;;;;;4.05;2.30;;;;;;;-142.75;100.00;76885.25;5046317;28;20036;-61
2023/06/24 02:13:50;;;;;;;3.53;2.10;;;;;;;-142.75;100.00;76887.22;5046041;28;20024;-62
2023/06/24 02:16:17;;;;;;;5.85;2.15;;;;;;;-142.75;100.00;76885.25;5046407;28;20108;-62
2023/06/24 02:18:43;;;;;;;4.70;2.50;;;;;;;-142.75;100.00;76893.13;5046038;28;20071;-61
2023/06/24 02:21:10;;;;;;;4.53;2.00;;;;;;;-142.75;100.00;76897.06;5046283;28;20032;-62
2023/06/24 02:23:37;;;;;;;6.65;2.28;;;;;;;-142.75;100.00;76902.97;5048875;28;20083;-62
2023/06/24 02:26:04;;;;;;;3.47;2.30;;;;;;;-142.75;100.00;76902.97;5050449;28;20048;-62
2023/06/24 02:28:30;;;;;;;5.97;2.45;;;;;;;-142.75;100.00;76910.84;5051219;28;20536;-62
2023/06/24 02:30:58;;;;;;;7.82;2.53;;;;;;;-142.75;100.00;76901.00;5070087;28;20743;-62
2023/06/24 02:33:23;;;;;;;4.18;2.25;;;;;;;-142.75;100.00;76895.09;5069938;28;20021;-62
2023/06/24 02:35:49;;;;;;;5.32;2.70;;;;;;;-142.75;100.00;76893.13;5070209;28;20472;-62
2023/06/24 02:38:14;;;;;;;8.63;2.60;;;;;;;-142.75;100.00;76914.78;5069964;28;20024;-62
2023/06/24 02:40:40;;;;;;;4.68;2.40;;;;;;;-142.75;100.00;76895.09;5069838;28;20032;-59
2023/06/24 02:43:05;;;;;;;5.95;2.47;;;;;;;-142.75;100.00;76899.03;5070056;28;20036;-60
2023/06/24 02:45:31;;;;;;;4.50;2.35;;;;;;;-142.75;100.00;76893.13;5069730;28;20039;-62
2023/06/24 02:47:57;;;;;;;5.72;2.60;;;;;;;-142.75;100.00;76901.00;5070105;28;20127;-61
2023/06/24 02:50:24;;;;;;;5.75;2.45;;;;;;;-142.75;100.00;76893.13;5070021;28;20040;-62
2023/06/24 02:52:51;;;;;;;4.10;2.70;;;;;;;-142.75;100.00;76885.25;5069788;28;20036;-61
2023/06/24 02:55:17;;;;;;;5.38;3.05;;;;;;;-142.75;100.00;76883.28;5069665;28;20033;-62
2023/06/24 02:57:43;;;;;;;4.95;2.70;;;;;;;-142.75;100.00;76881.31;5070053;28;20031;-63
2023/06/24 03:00:12;;;;;;;5.60;2.60;;;;;;;-142.75;100.00;76873.44;5067977;28;20027;-63
2023/06/24 03:02:38;;;;;;;5.13;2.75;;;;;;;-142.75;100.00;76881.31;5049603;28;20021;-62
2023/06/24 03:05:04;;;;;;;6.93;2.83;;;;;;;-142.75;100.00;76889.19;5049706;28;20071;-60
2023/06/24 03:07:30;;;;;;;6.57;3.17;;;;;;;-142.75;100.00;76877.38;5049670;28;20404;-62
2023/06/24 03:09:57;;;;;;;4.47;2.35;;;;;;;-142.75;100.00;76881.31;5049577;28;20025;-61
2023/06/24 03:12:23;;;;;;;7.07;3.03;;;;;;;-142.75;100.00;76893.13;5049416;28;20095;-60
2023/06/24 03:14:48;;;;;;;6.88;2.97;;;;;;;-142.75;100.00;76891.16;5049363;28;20021;-62
2023/06/24 03:17:14;;;;;;;6.97;2.60;;;;;;;-142.75;100.00;76901.00;5049491;28;21359;-62
2023/06/24 03:19:39;;;;;;;5.15;2.90;;;;;;;-142.75;100.00;76904.94;5049648;28;20027;-59
2023/06/24 03:22:04;;;;;;;5.18;2.70;;;;;;;-142.75;100.00;76901.00;5049674;28;20079;-61
2023/06/24 03:24:30;;;;;;;8.57;3.50;;;;;;;-142.75;100.00;76901.00;5049094;28;20112;-61
2023/06/24 03:26:56;;;;;;;5.15;2.58;;;;;;;-142.75;100.00;76893.13;5049424;28;20508;-61
2023/06/24 03:29:22;;;;;;;6.25;2.90;;;;;;;-142.75;100.00;76895.09;5048964;28;20017;-62
2023/06/24 03:31:48;;;;;;;7.03;3.30;;;;;;;-142.75;100.00;76887.22;5049049;28;20032;-62
2023/06/24 03:34:13;;;;;;;4.72;2.67;;;;;;;-142.75;100.00;76887.22;5048897;28;20024;-61
2023/06/24 03:36:39;;;;;;;5.53;3.13;;;;;;;-142.75;100.00;76889.19;5049287;28;20029;-62
2023/06/24 03:39:05;;;;;;;4.53;2.58;;;;;;;-142.75;100.00;76885.25;5049014;28;20029;-62
2023/06/24 03:41:30;;;;;;;7.57;3.17;;;;;;;-142.75;100.00;76897.06;5049087;28;20032;-62
2023/06/24 03:43:56;;;;;;;4.88;2.58;;;;;;;-142.75;100.00;76897.06;5048602;28;20037;-61
2023/06/24 03:46:21;;;;;;;5.18;2.35;;;;;;;-142.75;100.00;76906.91;5048885;28;20029;-62
2023/06/24 03:48:47;;;;;;;11.57;2.97;;;;;;;-142.75;100.00;76914.78;5048810;28;20029;-63
2023/06/24 03:51:12;;;;;;;4.97;2.63;;;;;;;-142.75;100.00;76924.63;5048677;28;20025;-61
2023/06/24 03:53:38;;;;;;;7.38;2.83;;;;;;;-142.75;100.00;76912.81;5048534;28;20644;-62
2023/06/24 03:56:04;;;;;;;5.60;2.97;;;;;;;-142.75;100.00;76902.97;5048786;28;20021;-62
2023/06/24 03:58:29;;;;;;;5.05;2.55;;;;;;;-142.75;100.00;76904.94;5048438;28;20075;-62
2023/06/24 04:00:56;;;;;;;5.95;3.47;;;;;;;-142.75;100.00;76902.97;5048531;28;20029;-61
2023/06/24 04:03:22;;;;;;;4.93;2.70;;;;;;;-142.75;100.00;76901.00;5048271;28;20036;-62
2023/06/24 04:05:47;;;;;;;6.53;3.78;;;;;;;-142.75;100.00;76904.94;5048527;28;20046;-62
2023/06/24 04:08:13;;;;;;;6.07;3.08;;;;;;;-142.75;100.00;76901.00;5048418;28;20506;-63
2023/06/24 04:10:38;;;;;;;5.50;2.70;;;;;;;-142.75;100.00;76904.94;5059740;28;20029;-62
2023/06/24 04:13:03;;;;;;;5.95;3.22;;;;;;;-142.75;100.00;76902.97;5068100;28;20021;-62
2023/06/24 04:15:29;;;;;;;4.65;2.63;;;;;;;-142.75;100.00;76908.88;5068319;28;20032;-62
2023/06/24 04:17:54;;;;;;;5.85;2.88;;;;;;;-142.75;100.00;76891.16;5067941;28;20746;-62
2023/06/24 04:20:20;;;;;;;6.32;2.75;;;;;;;-142.75;100.00;76893.13;5068136;28;20032;-62
2023/06/24 04:22:45;;;;;;;4.68;2.90;;;;;;;-142.75;100.00;76893.13;5068048;28;20403;-61
2023/06/24 04:25:11;;;;;;;5.63;2.88;;;;;;;-142.75;100.00;76889.19;5068786;28;20028;-60
2023/06/24 04:27:37;;;;;;;6.93;2.83;;;;;;;-142.75;100.00;76899.03;5068100;28;20020;-62
2023/06/24 04:30:03;;;;;;;5.90;2.55;;;;;;;-142.75;100.00;76897.06;5068136;28;20028;-62
2023/06/24 04:32:28;;;;;;;6.43;2.67;;;;;;;-142.75;100.00;76897.06;5067788;28;20024;-62
2023/06/24 04:34:53;;;;;;;6.32;2.90;;;;;;;-142.75;100.00;76904.94;5067889;28;20508;-63
2023/06/24 04:37:19;;;;;;;6.38;2.70;;;;;;;-142.75;100.00;76902.97;5067833;28;20520;-60
2023/06/24 04:39:45;;;;;;;7.40;3.08;;;;;;;-142.75;100.00;76895.09;5067755;28;20032;-62
2023/06/24 04:42:11;;;;;;;5.97;2.60;;;;;;;-142.75;100.00;76889.19;5067718;28;20024;-61
2023/06/24 04:44:36;;;;;;;6.35;3.22;;;;;;;-142.75;100.00;76883.28;5067373;28;20027;-61
2023/06/24 04:47:02;;;;;;;4.75;3.20;;;;;;;-142.75;100.00;76885.25;5067336;28;20032;-62
2023/06/24 04:49:28;;;;;;;4.65;2.97;;;;;;;-142.75;100.00;76887.22;5067725;28;20024;-62
2023/06/24 04:51:53;;;;;;;6.07;3.20;;;;;;;-142.75;100.00;76883.28;5067572;28;20016;-60
2023/06/24 04:54:18;;;;;;;5.70;3.05;;;;;;;-142.75;100.00;76879.34;5067179;28;20024;-61
2023/06/24 04:56:45;;;;;;;6.20;2.95;;;;;;;-142.75;100.00;76869.50;5067535;28;20399;-61
2023/06/24 04:59:10;;;;;;;6.80;3.30;;;;;;;-142.75;100.00;76857.69;5067188;28;20023;-61
2023/06/24 05:01:35;;;;;;;8.18;3.10;;;;;;;-142.75;100.00;76861.63;5067949;28;20472;-63
2023/06/24 05:04:01;;;;;;;6.50;3.05;;;;;;;-142.75;100.00;76871.47;5067222;28;20028;-62
2023/06/24 05:06:26;;;;;;;6.22;3.10;;;;;;;-142.75;100.00;76859.66;5067391;28;20152;-62
2023/06/24 05:08:52;;;;;;;6.43;3.30;;;;;;;-142.75;100.00;76859.66;5067300;28;20079;-62
2023/06/24 05:11:17;;;;;;;8.30;3.28;;;;;;;-142.75;100.00;76845.88;5067085;28;20230;-62
2023/06/24 05:13:43;;;;;;;5.53;3.20;;;;;;;-142.75;100.00;76847.84;5066884;28;20021;-61
2023/06/24 05:16:08;;;;;;;6.65;3.15;;;;;;;-142.75;100.00;76836.03;5057830;28;20024;-61
2023/06/24 05:18:33;;;;;;;7.10;3.17;;;;;;;-142.75;100.00;76832.09;5047009;28;20021;-60
2023/06/24 05:20:58;;;;;;;6.97;3.28;;;;;;;-142.75;100.00;76826.19;5047086;28;20621;-58
2023/06/24 05:23:24;;;;;;;7.63;3.58;;;;;;;-142.75;100.00;76814.38;5046795;28;20017;-62
2023/06/24 05:25:49;;;;;;;5.47;3.42;;;;;;;-142.75;100.00;76800.63;5047025;28;20075;-62
2023/06/24 05:28:14;;;;;;;6.57;3.65;;;;;;;-142.75;100.00;76798.66;5046859;28;20055;-62
2023/06/24 05:30:41;;;;;;;8.88;4.43;;;;;;;-142.75;100.00;76800.63;5046935;28;20079;-62
2023/06/24 05:33:07;;;;;;;7.20;3.72;;;;;;;-142.75;100.00;76780.94;5046900;28;20066;-61
2023/06/24 05:35:33;;;;;;;6.60;3.85;;;;;;;-142.75;100.00;76778.97;5046848;28;20021;-62
2023/06/24 05:37:58;;;;;;;8.45;3.45;;;;;;;-142.75;100.00;76771.09;5046789;28;20100;-62
2023/06/24 05:40:23;;;;;;;10.15;4.00;;;;;;;-142.75;100.00;76775.03;5046601;28;20115;-61
2023/06/24 05:42:49;;;;;;;7.75;3.92;;;;;;;-142.75;100.00;76759.28;5046357;28;20030;-62
2023/06/24 05:45:14;;;;;;;8.15;4.40;;;;;;;-142.75;100.00;76739.59;5046705;28;20048;-62
2023/06/24 05:47:40;;;;;;;7.47;3.65;;;;;;;-142.75;100.00;76729.75;5046861;28;20028;-60
2023/06/24 05:50:05;;;;;;;5.88;4.03;;;;;;;-142.75;100.00;76708.09;5045651;28;20499;-62
2023/06/24 05:52:31;;;;;;;7.93;4.18;;;;;;;-142.75;100.00;76698.25;5046387;28;20033;-63
2023/06/24 05:54:56;;;;;;;6.38;3.70;;;;;;;-142.75;100.00;76680.53;5046361;28;20428;-60
2023/06/24 05:57:21;;;;;;;7.55;3.65;;;;;;;-142.75;100.00;76696.28;5045485;28;20035;-62
2023/06/24 05:59:47;;;;;;;7.40;4.47;;;;;;;-142.75;100.00;76684.47;5045152;28;20052;-62
2023/06/24 06:02:12;;;;;;;8.10;4.03;;;;;;;-142.75;100.00;76672.66;5046403;28;20048;-62
2023/06/24 06:04:38;;;;;;;9.90;3.83;;;;;;;-142.75;100.00;76649.03;5046217;28;20025;-61
2023/06/24 06:07:04;;;;;;;9.23;4.45;;;;;;;-142.75;100.00;76647.06;5046632;28;20059;-61
2023/06/24 06:09:29;;;;;;;6.88;4.00;;;;;;;-142.75;100.00;76645.09;5046371;28;20609;-61
2023/06/24 06:11:55;;;;;;;7.45;4.70;;;;;;;-142.75;100.00;76633.28;5045480;28;20032;-62
2023/06/24 06:14:20;;;;;;;6.95;4.25;;;;;;;-142.75;100.00;76605.72;5045729;28;20033;-61
2023/06/24 06:16:45;;;;;;;6.72;4.18;;;;;;;-142.75;100.00;76584.06;5045850;28;20488;-61
2023/06/24 06:19:11;;;;;;;8.55;4.38;;;;;;;-142.75;100.00;76621.47;5045741;28;20021;-58
2023/06/24 06:21:37;;;;;;;8.32;4.75;;;;;;;-142.75;100.00;76607.69;5041117;28;20033;-62
2023/06/24 06:24:03;;;;;;;13.57;5.20;;;;;;;-142.75;100.00;76597.84;5038583;28;20053;-61
2023/06/24 06:26:28;;;;;;;9.43;4.18;;;;;;;-142.75;100.00;76576.19;5045329;28;20106;-61
2023/06/24 06:28:54;;;;;;;8.85;4.28;;;;;;;-142.75;100.00;76578.16;5046229;28;20027;-61
2023/06/24 06:31:19;;;;;;;7.90;4.22;;;;;;;-142.75;100.00;76570.28;5046066;28;20163;-62
2023/06/24 06:33:44;;;;;;;7.18;4.22;;;;;;;-142.75;100.00;76562.41;5046010;28;20078;-59
2023/06/24 06:36:10;;;;;;;6.93;4.43;;;;;;;-142.75;100.00;76552.56;5046491;28;20078;-60
2023/06/24 06:38:35;;;;;;;7.30;3.92;;;;;;;-142.75;100.00;76560.44;5045968;28;20052;-61
2023/06/24 06:41:01;;;;;;;5.47;3.75;;;;;;;-142.75;100.00;76558.47;5045881;28;20159;-60
2023/06/24 06:43:26;;;;;;;7.05;4.20;;;;;;;-142.75;100.00;76538.78;5045632;28;20143;-62
2023/06/24 06:45:52;;;;;;;8.50;4.40;;;;;;;-142.75;100.00;76527.00;5046218;28;20029;-61
2023/06/24 06:48:17;;;;;;;9.50;5.22;;;;;;;-142.75;100.00;76503.38;5046019;28;20021;-62
2023/06/24 06:50:44;;;;;;;9.15;4.32;;;;;;;-142.75;100.00;76467.94;5045892;28;20075;-60
2023/06/24 06:53:10;;;;;;;7.45;4.47;;;;;;;-142.75;100.00;76485.66;5045920;28;20039;-62
2023/06/24 06:55:36;;;;;;;9.13;4.25;;;;;;;-142.75;100.00;76489.59;5045800;28;20025;-61
2023/06/24 06:58:02;;;;;;;8.73;4.35;;;;;;;-142.75;100.00;76473.84;5045397;28;20021;-61
2023/06/24 07:00:27;;;;;;;8.93;4.60;;;;;;;-142.75;100.00;76454.16;5045877;28;20036;-61
2023/06/24 07:02:52;;;;;;;6.45;3.90;;;;;;;-142.75;100.00;76430.53;5045544;28;20024;-62
2023/06/24 07:05:18;;;;;;;9.32;4.75;;;;;;;-142.75;100.00;76401.00;5045880;28;20035;-61
2023/06/24 07:07:45;;;;;;;9.85;4.85;;;;;;;-142.75;100.00;76391.16;5045854;28;20121;-62
2023/06/24 07:10:10;;;;;;;7.03;4.18;;;;;;;-142.75;100.00;76369.50;5049287;28;20407;-61
2023/06/24 07:12:36;;;;;;;8.00;4.40;;;;;;;-142.75;100.00;76359.66;5049328;28;20033;-61
2023/06/24 07:15:01;;;;;;;7.47;4.85;;;;;;;-142.75;100.00;76349.81;5049595;28;20485;-62
2023/06/24 07:17:26;;;;;;;8.15;4.00;;;;;;;-142.75;100.00;76326.22;5049649;28;20028;-61
2023/06/24 07:19:52;;;;;;;7.55;5.07;;;;;;;-142.75;100.00;76326.22;5049284;28;20476;-61
2023/06/24 07:22:17;;;;;;;6.68;3.97;;;;;;;-142.75;100.00;76310.47;5049220;28;20614;-62
2023/06/24 07:24:43;;;;;;;8.88;4.47;;;;;;;-142.75;100.00;76302.59;5048945;28;20068;-64
2023/06/24 07:27:08;;;;;;;8.15;4.38;;;;;;;-142.75;100.00;76294.72;5049444;28;20060;-61
2023/06/24 07:29:33;;;;;;;6.82;4.25;;;;;;;-142.75;100.00;76302.59;5049063;28;20032;-62
2023/06/24 07:31:59;;;;;;;8.20;4.90;;;;;;;-142.75;100.00;76280.94;5049107;28;20692;-61
2023/06/24 07:34:24;;;;;;;6.50;4.00;;;;;;;-142.75;100.00;76259.28;5049099;28;20120;-61
2023/06/24 07:36:50;;;;;;;7.15;4.03;;;;;;;-142.75;100.00;76257.31;5042555;28;20095;-61
2023/06/24 07:39:16;;;;;;;7.13;4.22;;;;;;;-142.75;100.00;76231.72;5047904;28;20035;-62
2023/06/24 07:41:42;;;;;;;7.63;3.97;;;;;;;-142.75;100.00;76235.66;5047285;28;20029;-63
2023/06/24 07:44:07;;;;;;;6.80;3.90;;;;;;;-142.75;100.00;76208.09;5045938;28;20104;-62
2023/06/24 07:46:33;;;;;;;7.85;3.97;;;;;;;-142.75;100.00;76196.31;5046846;28;20103;-62
2023/06/24 07:48:58;;;;;;;6.65;3.97;;;;;;;-142.75;100.00;76186.47;5047123;28;20567;-59
2023/06/24 07:51:24;;;;;;;10.05;4.57;;;;;;;-142.75;100.00;76174.66;5046264;28;20055;-60
2023/06/24 07:53:49;;;;;;;6.93;4.20;;;;;;;-142.75;100.00;76172.69;5046773;28;20021;-62
2023/06/24 07:56:14;;;;;;;9.25;4.35;;;;;;;-142.75;100.00;76143.16;5046242;28;20029;-62
2023/06/24 07:58:40;;;;;;;10.02;4.53;;;;;;;-142.75;100.00;76192.38;5044655;28;20048;-60
2023/06/24 08:01:05;;;;;;;7.20;3.88;;;;;;;-142.75;100.00;76176.63;5045540;28;20480;-62
2023/06/24 08:03:31;;;;;;;10.73;4.28;;;;;;;-142.75;100.00;76196.31;5047315;28;20099;-62
2023/06/24 08:05:56;;;;;;;7.05;4.20;;;;;;;-142.75;100.00;76204.16;5047787;28;20468;-61
2023/06/24 08:08:22;;;;;;;6.22;3.97;;;;;;;-142.75;100.00;76196.31;5047078;28;20337;-62
2023/06/24 08:10:47;;;;;;;9.02;4.00;;;;;;;-142.75;100.00;76204.16;5048346;28;20031;-59
2023/06/24 08:13:13;;;;;;;6.63;3.72;;;;;;;-142.75;100.00;76184.50;5048208;28;20535;-62
2023/06/24 08:15:38;;;;;;;6.72;4.28;;;;;;;-142.75;100.00;76186.47;5046964;28;20480;-62
2023/06/24 08:18:04;;;;;;;7.43;4.57;;;;;;;-142.75;100.00;76215.97;5048080;28;20029;-62
2023/06/24 08:20:29;;;;;;;9.07;5.25;;;;;;;-142.75;100.00;76237.63;5046979;28;20028;-62
2023/06/24 08:22:54;;;;;;;7.70;5.00;;;;;;;-142.75;100.00;76229.75;5047506;28;20088;-60
2023/06/24 08:25:20;;;;;;;9.48;5.03;;;;;;;-142.75;100.00;76214.00;5048180;28;20036;-62
2023/06/24 08:27:46;;;;;;;9.63;4.82;;;;;;;-142.75;100.00;76202.19;5048230;28;20025;-62
2023/06/24 08:30:13;;;;;;;9.80;4.93;;;;;;;-142.75;100.00;76188.44;5048264;28;20401;-63
2023/06/24 08:32:40;;;;;;;12.77;5.60;;;;;;;-142.75;100.00;76202.19;5046679;28;20178;-59
2023/06/24 08:35:06;;;;;;;8.27;4.88;;;;;;;-142.75;100.00;76178.59;5047942;28;20025;-63
2023/06/24 08:37:31;;;;;;;9.55;5.03;;;;;;;-142.75;100.00;76160.88;5047790;28;20263;-61
2023/06/24 08:39:57;;;;;;;8.13;4.93;;;;;;;-142.75;100.00;76160.88;5045985;28;20100;-60
2023/06/24 08:42:22;;;;;;;10.70;5.43;;;;;;;-142.75;100.00;76137.25;5047681;28;20029;-61
2023/06/24 08:44:48;;;;;;;8.82;4.90;;;;;;;-142.75;100.00;76125.44;5047389;28;20029;-61
2023/06/24 08:47:16;;;;;;;11.10;5.72;;;;;;;-142.75;100.00;76135.28;5047928;28;20029;-61
2023/06/24 08:49:49;;;;;;;9.70;5.75;;;;;;;-142.75;100.00;76166.78;5047607;28;20021;-61
2023/06/24 08:52:16;;;;;;;8.95;5.95;;;;;;;-142.75;100.00;76170.72;5047388;28;20029;-62
2023/06/24 08:54:48;;;;;;;11.25;6.13;;;;;;;-142.75;100.00;76180.56;5047697;28;20025;-61
2023/06/24 08:57:18;;;;;;;9.40;5.13;;;;;;;-142.75;100.00;76172.69;5047895;28;20032;-60
2023/06/24 08:59:43;;;;;;;9.70;5.28;;;;;;;-142.75;100.00;76168.75;5046266;28;20033;-61
2023/06/24 09:02:10;;;;;;;7.68;4.80;;;;;;;-142.75;100.00;76196.31;5047692;28;20111;-62
2023/06/24 09:04:36;;;;;;;9.10;5.65;;;;;;;-142.75;100.00;76164.81;5047112;28;20056;-62
2023/06/24 09:07:01;;;;;;;12.30;5.03;;;;;;;-142.75;100.00;76158.91;5047678;28;20072;-60
2023/06/24 09:09:28;;;;;;;8.85;5.45;;;;;;;-142.75;100.00;76162.84;5047139;28;20024;-61
2023/06/24 09:11:59;;;;;;;10.65;5.13;;;;;;;-142.75;100.00;76160.88;5047495;28;20032;-61
2023/06/24 09:14:25;;;;;;;9.20;5.53;;;;;;;-142.75;100.00;76139.22;5047346;28;20020;-62
2023/06/24 09:17:00;;;;;;;10.02;5.15;;;;;;;-142.75;100.00;76125.44;5047292;28;20029;-62
2023/06/24 09:19:36;;;;;;;9.63;5.95;;;;;;;-142.75;100.00;76131.34;5047033;28;20059;-60
2023/06/24 09:22:03;;;;;;;9.25;5.45;;;;;;;-142.75;100.00;76131.34;5047171;28;20060;-61
2023/06/24 09:24:30;;;;;;;6.72;4.88;;;;;;;-142.75;100.00;76127.41;5046722;28;20029;-59
2023/06/24 09:26:59;;;;;;;7.68;4.45;;;;;;;-142.75;100.00;76141.19;5047139;28;20046;-61
2023/06/24 09:29:27;;;;;;;9.80;5.22;;;;;;;-142.75;100.00;76127.41;5047067;28;20052;-62
2023/06/24 09:31:52;;;;;;;12.32;5.70;;;;;;;-142.75;100.00;76121.50;5046678;28;20025;-62
2023/06/24 09:34:19;;;;;;;10.98;5.07;;;;;;;-142.75;100.00;76149.06;5046838;28;20016;-62
2023/06/24 09:36:45;;;;;;;10.90;5.45;;;;;;;-142.75;100.00;76097.88;5046963;28;20500;-60
2023/06/24 09:39:11;;;;;;;7.50;4.93;;;;;;;-142.75;100.00;76064.44;5045298;28;20108;-60
2023/06/24 09:41:40;;;;;;;8.93;5.30;;;;;;;-142.75;100.00;76009.31;5046801;28;20107;-62
2023/06/24 09:44:11;;;;;;;12.40;6.00;;;;;;;-142.75;100.00;75969.94;5045130;28;20025;-61
2023/06/24 09:46:37;;;;;;;8.70;5.10;;;;;;;-142.75;100.00;75948.31;5046950;28;20095;-62
2023/06/24 09:49:06;;;;;;;8.90;4.85;;;;;;;-142.75;100.00;75924.69;5046671;28;20017;-61
2023/06/24 09:51:40;;;;;;;9.40;4.90;;;;;;;-142.75;100.00;75885.31;5046740;28;20025;-61
2023/06/24 09:54:06;;;;;;;8.15;5.20;;;;;;;-142.75;100.00;75873.50;5046357;28;20108;-62
2023/06/24 09:56:35;;;;;;;10.18;5.57;;;;;;;-142.75;100.00;75861.69;5046609;28;20120;-61
2023/06/24 09:59:03;;;;;;;8.95;5.50;;;;;;;-142.75;100.00;75857.78;5046389;28;20023;-59
2023/06/24 10:01:29;;;;;;;9.07;5.20;;;;;;;-142.75;100.00;75828.25;5046608;28;20040;-61
2023/06/24 10:03:55;;;;;;;8.90;5.07;;;;;;;-142.75;100.00;75788.88;5046410;28;20025;-62
2023/06/24 10:06:20;;;;;;;10.48;5.78;;;;;;;-142.75;99.80;75775.09;5046608;28;20043;-62
2023/06/24 10:08:45;;;;;;;9.35;5.57;;;;;;;-142.75;100.00;75751.50;5046378;28;20025;-62
2023/06/24 10:11:11;;;;;;;11.40;5.70;;;;;;;-142.75;98.08;75733.78;5046679;28;20074;-63
2023/06/24 10:13:36;;;;;;;8.07;5.07;;;;;;;-142.75;100.00;75718.03;5045931;28;20419;-62
2023/06/24 10:16:02;;;;;;;8.55;5.18;;;;;;;-142.75;98.21;75702.28;5046487;28;20285;-61
2023/06/24 10:18:34;;;;;;;9.40;5.00;;;;;;;-142.75;92.05;75702.28;5046290;28;20024;-61
2023/06/24 10:21:00;;;;;;;11.55;5.03;;;;;;;-142.75;89.27;75769.19;5046270;28;20056;-62
2023/06/24 10:23:53;;;;;;;7.30;4.22;;;;;;;-142.75;98.73;75749.53;5045841;28;20076;-61
2023/06/24 10:26:24;;;;;;;9.52;5.40;;;;;;;-142.75;96.57;75759.38;5046075;28;20056;-62
2023/06/24 10:29:05;;;;;;;7.88;4.72;;;;;;;-142.75;96.93;75747.56;5046422;28;20035;-61
2023/06/24 10:31:39;;;;;;;12.20;5.15;;;;;;;-142.75;95.07;75775.09;5046287;28;20070;-62
2023/06/24 10:34:24;;;;;;;11.10;5.78;;;;;;;-142.75;91.43;75763.28;5046003;28;20052;-61
2023/06/24 10:37:04;;;;;;;8.73;5.03;;;;;;;-142.75;93.65;75779.03;5046499;28;20024;-62
2023/06/24 10:39:54;;;;;;;11.88;4.65;;;;;;;-142.75;100.00;75767.22;5046006;28;20056;-62
2023/06/24 10:42:35;;;;;;;8.07;4.43;;;;;;;-142.75;86.80;75796.75;5046108;28;20029;-62
2023/06/24 10:45:09;;;;;;;7.75;4.00;;;;;;;-142.75;89.24;75800.69;5049446;28;20021;-62
2023/06/24 10:47:38;;;;;;;8.82;4.97;;;;;;;-142.75;92.35;75773.13;5050038;28;20472;-62
2023/06/24 10:50:08;;;;;;;8.88;4.82;;;;;;;-142.75;90.98;75757.41;5050138;28;20028;-62
2023/06/24 10:52:38;;;;;;;8.45;4.78;;;;;;;-142.75;90.08;75727.88;5049695;28;20068;-61
2023/06/24 10:55:04;;;;;;;11.52;4.22;;;;;;;-142.75;88.83;75749.53;5049723;28;20311;-62
2023/06/24 10:57:29;;;;;;;12.48;4.30;;;;;;;-142.75;88.03;75751.50;5049959;28;20029;-62
2023/06/24 10:59:57;;;;;;;9.13;5.43;;;;;;;-142.75;85.89;75781.00;5049805;28;20735;-61
2023/06/24 11:02:24;;;;;;;9.80;4.75;;;;;;;-142.75;90.06;75782.97;5049746;28;20107;-62
2023/06/24 11:04:56;;;;;;;7.03;4.07;;;;;;;-142.75;95.10;75741.66;5049606;28;20115;-62
2023/06/24 11:07:26;;;;;;;7.47;4.68;;;;;;;-142.75;84.54;75759.38;5049793;28;20035;-63
2023/06/24 11:09:54;;;;;;;11.40;4.28;;;;;;;-142.75;88.34;75755.44;5049685;28;20474;-62